createdAt,value
2022-10-21T00:00:29.421Z,0.00
2022-10-21T00:01:29.488Z,0.00
2022-10-21T00:02:29.408Z,0.00
2022-10-21T00:03:29.434Z,0.00
2022-10-21T00:04:29.380Z,0.00
2022-10-21T00:05:29.389Z,0.00
2022-10-21T00:06:29.345Z,0.00
2022-10-21T00:07:29.352Z,0.00
2022-10-21T00:08:29.422Z,0.00
2022-10-21T00:09:29.338Z,0.00
2022-10-21T00:10:29.355Z,0.00
2022-10-21T00:11:29.303Z,0.00
2022-10-21T00:12:29.269Z,0.00
2022-10-21T00:13:29.270Z,0.00
2022-10-21T00:14:29.277Z,0.00
2022-10-21T00:15:29.246Z,0.00
2022-10-21T00:16:29.216Z,0.00
2022-10-21T00:17:29.249Z,0.00
2022-10-21T00:18:29.197Z,0.00
2022-10-21T00:19:29.236Z,0.00
2022-10-21T00:20:29.164Z,0.00
2022-10-21T00:21:29.189Z,0.00
2022-10-21T00:22:29.150Z,0.00
2022-10-21T00:23:29.161Z,0.00
2022-10-21T00:24:29.126Z,0.00
2022-10-21T00:25:29.146Z,0.00
2022-10-21T00:26:29.091Z,0.00
2022-10-21T00:27:29.088Z,0.00
2022-10-21T00:28:29.078Z,0.00
2022-10-21T00:29:29.051Z,0.00
2022-10-21T00:30:29.082Z,0.00
2022-10-21T00:31:29.024Z,0.00
2022-10-21T00:32:29.016Z,0.00
2022-10-21T00:33:29.005Z,0.00
2022-10-21T00:34:30.937Z,0.00
2022-10-21T00:35:28.992Z,0.00
2022-10-21T00:36:28.998Z,0.00
2022-10-21T00:37:28.971Z,0.00
2022-10-21T00:38:28.942Z,0.00
2022-10-21T00:39:28.922Z,0.00
2022-10-21T00:40:28.984Z,0.00
2022-10-21T00:41:28.942Z,0.00
2022-10-21T00:42:28.913Z,0.00
2022-10-21T00:43:28.895Z,0.00
2022-10-21T00:44:28.860Z,0.00
2022-10-21T00:45:28.863Z,0.00
2022-10-21T00:46:28.840Z,0.00
2022-10-21T00:47:28.839Z,0.00
2022-10-21T00:48:28.818Z,0.00
2022-10-21T00:49:28.788Z,0.00
2022-10-21T00:50:28.788Z,0.00
2022-10-21T00:51:28.761Z,0.00
2022-10-21T00:52:28.821Z,0.00
2022-10-21T00:53:28.737Z,0.00
2022-10-21T00:54:28.732Z,0.00
2022-10-21T00:55:28.706Z,0.00
2022-10-21T00:56:28.709Z,0.00
2022-10-21T00:57:28.678Z,0.00
2022-10-21T00:58:28.735Z,0.00
2022-10-21T00:59:28.680Z,0.00
2022-10-21T01:00:28.654Z,0.00
2022-10-21T01:01:28.742Z,0.00
2022-10-21T01:02:28.629Z,0.00
2022-10-21T01:03:28.626Z,0.00
2022-10-21T01:04:28.610Z,0.00
2022-10-21T01:05:28.575Z,0.00
2022-10-21T01:06:28.608Z,0.00
2022-10-21T01:07:28.553Z,0.00
2022-10-21T01:08:28.630Z,0.00
2022-10-21T01:09:28.548Z,0.00
2022-10-21T01:10:28.535Z,0.00
2022-10-21T01:11:28.490Z,0.00
2022-10-21T01:12:28.494Z,0.00
2022-10-21T01:13:28.485Z,0.00
2022-10-21T01:14:28.501Z,0.00
2022-10-21T01:15:28.461Z,0.00
2022-10-21T01:16:28.449Z,0.00
2022-10-21T01:17:43.606Z,0.00
2022-10-21T01:18:28.420Z,0.00
2022-10-21T01:19:28.402Z,0.00
2022-10-21T01:20:28.418Z,0.00
2022-10-21T01:21:28.367Z,0.00
2022-10-21T01:22:28.364Z,0.00
2022-10-21T01:23:28.340Z,0.00
2022-10-21T01:24:28.352Z,0.00
2022-10-21T01:25:28.333Z,0.00
2022-10-21T01:26:28.317Z,0.00
2022-10-21T01:27:28.291Z,0.00
2022-10-21T01:28:28.285Z,0.00
2022-10-21T01:29:28.263Z,0.00
2022-10-21T01:30:28.300Z,0.00
2022-10-21T01:31:28.269Z,0.00
2022-10-21T01:32:28.232Z,0.00
2022-10-21T01:33:28.210Z,0.00
2022-10-21T01:34:28.217Z,0.00
2022-10-21T01:35:28.187Z,0.00
2022-10-21T01:36:28.211Z,0.00
2022-10-21T01:37:28.213Z,0.00
2022-10-21T01:38:28.153Z,0.00
2022-10-21T01:39:28.130Z,0.00
2022-10-21T01:40:28.146Z,0.00
2022-10-21T01:41:28.138Z,0.00
2022-10-21T01:42:28.107Z,0.00
2022-10-21T01:43:28.099Z,0.00
2022-10-21T01:44:28.079Z,0.00
2022-10-21T01:45:28.058Z,0.00
2022-10-21T01:46:28.089Z,0.00
2022-10-21T01:47:28.039Z,0.00
2022-10-21T01:48:28.028Z,0.00
2022-10-21T01:49:28.003Z,0.00
2022-10-21T01:50:28.000Z,0.00
2022-10-21T01:51:27.990Z,0.00
2022-10-21T01:52:27.997Z,0.00
2022-10-21T01:53:27.958Z,0.00
2022-10-21T01:54:27.945Z,0.00
2022-10-21T01:55:27.912Z,0.00
2022-10-21T01:56:27.951Z,0.00
2022-10-21T01:57:27.922Z,0.00
2022-10-21T01:58:27.913Z,0.00
2022-10-21T01:59:27.871Z,0.00
2022-10-21T02:00:27.869Z,0.00
2022-10-21T02:01:27.892Z,0.00
2022-10-21T02:02:27.883Z,0.00
2022-10-21T02:03:27.813Z,0.00
2022-10-21T02:04:27.808Z,0.00
2022-10-21T02:05:27.805Z,0.00
2022-10-21T02:06:27.786Z,0.00
2022-10-21T02:07:27.786Z,0.00
2022-10-21T02:08:27.816Z,0.00
2022-10-21T02:09:27.808Z,0.00
2022-10-21T02:10:27.734Z,0.00
2022-10-21T02:11:27.726Z,0.00
2022-10-21T02:12:27.717Z,0.00
2022-10-21T02:13:27.704Z,0.00
2022-10-21T02:14:27.680Z,0.00
2022-10-21T02:15:27.705Z,0.00
2022-10-21T02:16:27.655Z,0.00
2022-10-21T02:17:27.636Z,0.00
2022-10-21T02:18:27.718Z,0.00
2022-10-21T02:19:27.668Z,0.00
2022-10-21T02:20:27.604Z,0.00
2022-10-21T02:21:27.704Z,0.00
2022-10-21T02:22:27.577Z,0.00
2022-10-21T02:23:27.570Z,0.00
2022-10-21T02:24:27.581Z,0.00
2022-10-21T02:25:27.521Z,0.00
2022-10-21T02:26:27.538Z,0.00
2022-10-21T02:27:27.502Z,0.00
2022-10-21T02:28:27.559Z,0.00
2022-10-21T02:29:27.508Z,0.00
2022-10-21T02:30:27.479Z,0.00
2022-10-21T02:31:27.446Z,0.00
2022-10-21T02:32:27.470Z,0.00
2022-10-21T02:33:27.422Z,0.00
2022-10-21T02:34:27.463Z,0.00
2022-10-21T02:35:27.404Z,0.00
2022-10-21T02:36:27.397Z,0.00
2022-10-21T02:37:27.427Z,0.00
2022-10-21T02:38:27.367Z,0.00
2022-10-21T02:39:27.346Z,0.00
2022-10-21T02:40:27.378Z,0.00
2022-10-21T02:41:27.385Z,0.00
2022-10-21T02:42:27.321Z,0.00
2022-10-21T02:43:27.316Z,0.00
2022-10-21T02:44:27.299Z,0.00
2022-10-21T02:45:27.338Z,0.00
2022-10-21T02:46:27.262Z,0.00
2022-10-21T02:47:27.237Z,0.00
2022-10-21T02:48:27.257Z,0.00
2022-10-21T02:49:27.212Z,0.00
2022-10-21T02:50:27.277Z,0.00
2022-10-21T02:51:27.217Z,0.00
2022-10-21T02:52:27.185Z,0.00
2022-10-21T02:53:27.158Z,0.00
2022-10-21T02:54:27.158Z,0.00
2022-10-21T02:55:27.144Z,0.00
2022-10-21T02:56:27.185Z,0.00
2022-10-21T02:57:27.107Z,0.00
2022-10-21T02:58:27.120Z,0.00
2022-10-21T02:59:27.097Z,0.00
2022-10-21T03:00:30.782Z,0.00
2022-10-21T03:01:27.177Z,0.00
2022-10-21T03:02:27.053Z,0.00
2022-10-21T03:03:27.070Z,0.00
2022-10-21T03:04:27.043Z,0.00
2022-10-21T03:05:27.024Z,0.00
2022-10-21T03:06:27.080Z,0.00
2022-10-21T03:07:26.976Z,0.00
2022-10-21T03:08:26.975Z,0.00
2022-10-21T03:09:26.964Z,0.00
2022-10-21T03:10:26.958Z,0.00
2022-10-21T03:11:26.921Z,0.00
2022-10-21T03:12:26.968Z,0.00
2022-10-21T03:13:26.897Z,0.00
2022-10-21T03:14:26.920Z,0.00
2022-10-21T03:15:26.863Z,0.00
2022-10-21T03:16:26.915Z,0.00
2022-10-21T03:17:26.881Z,0.00
2022-10-21T03:18:26.948Z,0.00
2022-10-21T03:19:26.816Z,0.00
2022-10-21T03:20:26.848Z,0.00
2022-10-21T03:21:26.790Z,0.00
2022-10-21T03:22:26.820Z,0.00
2022-10-21T03:23:26.802Z,0.00
2022-10-21T03:24:28.764Z,0.00
2022-10-21T03:25:26.736Z,0.00
2022-10-21T03:26:26.747Z,0.00
2022-10-21T03:27:26.806Z,0.00
2022-10-21T03:28:26.739Z,0.00
2022-10-21T03:29:26.682Z,0.00
2022-10-21T03:30:26.709Z,0.00
2022-10-21T03:31:26.655Z,0.00
2022-10-21T03:32:26.660Z,0.00
2022-10-21T03:33:26.665Z,0.00
2022-10-21T03:34:26.649Z,0.00
2022-10-21T03:35:26.633Z,0.00
2022-10-21T03:36:26.627Z,0.00
2022-10-21T03:37:26.582Z,0.00
2022-10-21T03:38:26.619Z,0.00
2022-10-21T03:39:26.557Z,0.00
2022-10-21T03:40:26.576Z,0.00
2022-10-21T03:41:26.537Z,0.00
2022-10-21T03:42:26.530Z,0.00
2022-10-21T03:43:26.508Z,0.00
2022-10-21T03:44:26.571Z,0.00
2022-10-21T03:45:26.470Z,0.00
2022-10-21T03:46:26.498Z,0.00
2022-10-21T03:47:26.457Z,0.00
2022-10-21T03:48:26.454Z,0.00
2022-10-21T03:49:26.483Z,0.00
2022-10-21T03:50:26.889Z,0.00
2022-10-21T03:51:26.397Z,0.00
2022-10-21T03:52:26.409Z,0.00
2022-10-21T03:53:42.186Z,0.00
2022-10-21T03:54:26.418Z,0.00
2022-10-21T03:55:26.376Z,0.00
2022-10-21T03:56:26.351Z,0.00
2022-10-21T03:57:26.332Z,0.00
2022-10-21T03:58:26.328Z,0.00
2022-10-21T03:59:26.295Z,0.00
2022-10-21T04:00:28.326Z,0.00
2022-10-21T04:01:26.398Z,0.00
2022-10-21T04:02:26.271Z,0.00
2022-10-21T04:03:26.246Z,0.00
2022-10-21T04:04:26.243Z,0.00
2022-10-21T04:05:26.270Z,0.00
2022-10-21T04:06:26.234Z,0.00
2022-10-21T04:07:26.185Z,0.00
2022-10-21T04:08:26.201Z,0.00
2022-10-21T04:09:26.190Z,0.00
2022-10-21T04:10:26.214Z,0.00
2022-10-21T04:11:26.133Z,0.00
2022-10-21T04:12:26.138Z,0.00
2022-10-21T04:13:26.109Z,0.00
2022-10-21T04:14:26.112Z,0.00
2022-10-21T04:15:26.108Z,0.00
2022-10-21T04:16:26.115Z,0.00
2022-10-21T04:17:26.053Z,0.00
2022-10-21T04:18:26.100Z,0.00
2022-10-21T04:19:26.034Z,0.00
2022-10-21T04:20:26.034Z,0.00
2022-10-21T04:21:26.028Z,0.00
2022-10-21T04:22:26.025Z,0.00
2022-10-21T04:23:25.974Z,0.00
2022-10-21T04:24:25.997Z,0.00
2022-10-21T04:25:25.973Z,0.00
2022-10-21T04:26:26.024Z,0.00
2022-10-21T04:27:25.953Z,0.00
2022-10-21T04:28:25.970Z,0.00
2022-10-21T04:29:25.907Z,0.00
2022-10-21T04:30:25.913Z,0.00
2022-10-21T04:31:29.866Z,0.00
2022-10-21T04:32:25.967Z,0.00
2022-10-21T04:33:25.848Z,0.00
2022-10-21T04:34:25.877Z,0.00
2022-10-21T04:35:25.850Z,0.00
2022-10-21T04:36:25.846Z,0.00
2022-10-21T04:37:25.841Z,0.00
2022-10-21T04:38:25.818Z,0.00
2022-10-21T04:39:25.774Z,0.00
2022-10-21T04:40:25.807Z,0.00
2022-10-21T04:41:25.789Z,0.00
2022-10-21T04:43:25.768Z,0.00
2022-10-21T04:44:26.641Z,0.00
2022-10-21T04:45:25.992Z,0.00
2022-10-21T04:46:25.700Z,0.00
2022-10-21T04:47:25.707Z,0.00
2022-10-21T04:48:25.671Z,0.00
2022-10-21T04:49:25.693Z,0.00
2022-10-21T04:50:25.638Z,0.00
2022-10-21T04:51:25.692Z,0.00
2022-10-21T04:52:25.640Z,0.00
2022-10-21T04:53:25.610Z,0.00
2022-10-21T04:54:25.585Z,0.00
2022-10-21T04:55:25.608Z,0.00
2022-10-21T04:56:25.602Z,0.00
2022-10-21T04:57:25.614Z,0.00
2022-10-21T04:58:25.533Z,0.00
2022-10-21T04:59:25.541Z,0.00
2022-10-21T05:00:25.531Z,0.00
2022-10-21T05:01:25.605Z,0.00
2022-10-21T05:02:25.752Z,0.00
2022-10-21T05:03:25.477Z,0.00
2022-10-21T05:04:25.444Z,0.00
2022-10-21T05:05:25.462Z,0.00
2022-10-21T05:06:25.456Z,0.00
2022-10-21T05:07:25.422Z,0.00
2022-10-21T05:08:25.395Z,0.00
2022-10-21T05:09:25.471Z,0.00
2022-10-21T05:10:25.381Z,0.00
2022-10-21T05:11:25.471Z,0.00
2022-10-21T05:12:25.420Z,0.00
2022-10-21T05:13:25.351Z,0.00
2022-10-21T05:14:25.327Z,0.00
2022-10-21T05:15:25.316Z,0.00
2022-10-21T05:16:25.328Z,0.00
2022-10-21T05:17:25.335Z,0.00
2022-10-21T05:18:25.296Z,0.00
2022-10-21T05:19:28.991Z,0.00
2022-10-21T05:20:25.276Z,0.00
2022-10-21T05:21:25.366Z,0.00
2022-10-21T05:22:25.218Z,0.00
2022-10-21T05:23:25.343Z,0.00
2022-10-21T05:24:25.191Z,0.00
2022-10-21T05:25:25.190Z,0.00
2022-10-21T05:26:25.198Z,0.00
2022-10-21T05:27:25.260Z,0.00
2022-10-21T05:28:25.143Z,0.00
2022-10-21T05:29:25.202Z,0.00
2022-10-21T05:30:25.118Z,0.00
2022-10-21T05:31:25.188Z,0.00
2022-10-21T05:32:25.109Z,0.00
2022-10-21T05:33:25.090Z,0.00
2022-10-21T05:34:25.064Z,0.00
2022-10-21T05:35:25.219Z,0.00
2022-10-21T05:36:25.029Z,0.00
2022-10-21T05:37:25.055Z,0.00
2022-10-21T05:38:25.019Z,0.00
2022-10-21T05:39:25.049Z,0.00
2022-10-21T05:40:25.086Z,0.00
2022-10-21T05:41:24.997Z,0.00
2022-10-21T05:42:25.006Z,0.00
2022-10-21T05:43:24.991Z,0.00
2022-10-21T05:44:25.025Z,0.00
2022-10-21T05:45:24.992Z,0.00
2022-10-21T05:46:24.919Z,1.00
2022-10-21T05:47:24.842Z,1.00
2022-10-21T05:48:24.865Z,1.00
2022-10-21T05:49:24.846Z,1.00
2022-10-21T05:50:24.802Z,2.00
2022-10-21T05:51:24.952Z,2.00
2022-10-21T05:52:24.765Z,2.00
2022-10-21T05:53:24.868Z,5.00
2022-10-21T05:54:24.754Z,4.00
2022-10-21T05:55:24.749Z,4.00
2022-10-21T05:56:24.774Z,9.00
2022-10-21T05:57:24.784Z,8.00
2022-10-21T05:58:24.694Z,9.00
2022-10-21T05:59:24.689Z,9.00
2022-10-21T06:00:24.680Z,9.00
2022-10-21T06:01:24.704Z,9.00
2022-10-21T06:02:24.665Z,11.00
2022-10-21T06:03:24.653Z,13.00
2022-10-21T06:04:24.618Z,13.00
2022-10-21T06:05:24.668Z,16.00
2022-10-21T06:06:24.591Z,20.00
2022-10-21T06:07:24.591Z,18.00
2022-10-21T06:08:24.590Z,20.00
2022-10-21T06:09:24.557Z,24.00
2022-10-21T06:10:28.271Z,26.00
2022-10-21T06:11:24.560Z,27.00
2022-10-21T06:12:24.513Z,31.00
2022-10-21T06:13:24.542Z,31.00
2022-10-21T06:14:24.504Z,33.00
2022-10-21T06:15:25.234Z,33.00
2022-10-21T06:16:24.496Z,42.00
2022-10-21T06:17:24.468Z,46.00
2022-10-21T06:18:24.427Z,51.00
2022-10-21T06:19:24.483Z,56.00
2022-10-21T06:20:24.405Z,54.00
2022-10-21T06:21:24.420Z,64.00
2022-10-21T06:22:24.410Z,67.00
2022-10-21T06:23:24.381Z,65.00
2022-10-21T06:24:24.618Z,71.00
2022-10-21T06:25:24.606Z,73.00
2022-10-21T06:26:24.323Z,71.00
2022-10-21T06:27:24.339Z,75.00
2022-10-21T06:28:24.336Z,71.00
2022-10-21T06:29:24.289Z,72.00
2022-10-21T06:30:24.308Z,69.00
2022-10-21T06:31:24.342Z,74.00
2022-10-21T06:32:25.080Z,72.00
2022-10-21T06:33:26.846Z,73.00
2022-10-21T06:34:24.267Z,72.00
2022-10-21T06:35:24.276Z,82.00
2022-10-21T06:36:24.201Z,78.00
2022-10-21T06:37:24.214Z,86.00
2022-10-21T06:38:24.164Z,96.00
2022-10-21T06:39:24.172Z,112.00
2022-10-21T06:40:24.150Z,113.00
2022-10-21T06:41:24.175Z,112.00
2022-10-21T06:42:24.119Z,124.00
2022-10-21T06:43:24.131Z,136.00
2022-10-21T06:44:24.090Z,149.00
2022-10-21T06:45:24.087Z,144.00
2022-10-21T06:46:24.201Z,128.00
2022-10-21T06:47:24.063Z,118.00
2022-10-21T06:48:24.283Z,114.00
2022-10-21T06:49:24.037Z,121.00
2022-10-21T06:50:24.037Z,119.00
2022-10-21T06:51:24.022Z,120.00
2022-10-21T06:52:24.018Z,135.00
2022-10-21T06:53:23.992Z,152.00
2022-10-21T06:54:23.967Z,159.00
2022-10-21T06:55:23.965Z,170.00
2022-10-21T06:56:23.939Z,175.00
2022-10-21T06:57:24.109Z,186.00
2022-10-21T06:58:23.908Z,197.00
2022-10-21T06:59:23.908Z,225.00
2022-10-21T07:00:23.918Z,240.00
2022-10-21T07:01:34.624Z,267.00
2022-10-21T07:02:23.859Z,289.00
2022-10-21T07:03:23.879Z,328.00
2022-10-21T07:04:23.856Z,354.00
2022-10-21T07:05:23.913Z,383.00
2022-10-21T07:06:23.875Z,414.00
2022-10-21T07:07:23.838Z,442.00
2022-10-21T07:08:39.671Z,462.00
2022-10-21T07:09:23.912Z,494.00
2022-10-21T07:10:23.746Z,492.00
2022-10-21T07:11:23.748Z,495.00
2022-10-21T07:12:23.730Z,511.00
2022-10-21T07:13:26.127Z,499.00
2022-10-21T07:14:23.720Z,516.00
2022-10-21T07:15:23.722Z,493.00
2022-10-21T07:16:23.677Z,522.00
2022-10-21T07:17:23.667Z,534.00
2022-10-21T07:18:23.654Z,573.00
2022-10-21T07:19:23.672Z,579.00
2022-10-21T07:20:23.612Z,612.00
2022-10-21T07:21:23.622Z,640.00
2022-10-21T07:22:23.594Z,607.00
2022-10-21T07:23:23.599Z,628.00
2022-10-21T07:24:23.563Z,676.00
2022-10-21T07:25:23.591Z,653.00
2022-10-21T07:26:23.557Z,592.00
2022-10-21T07:27:23.557Z,667.00
2022-10-21T07:28:23.520Z,663.00
2022-10-21T07:29:23.510Z,555.00
2022-10-21T07:30:23.635Z,545.00
2022-10-21T07:31:23.498Z,614.00
2022-10-21T07:32:23.464Z,507.00
2022-10-21T07:33:23.459Z,307.00
2022-10-21T07:34:23.452Z,325.00
2022-10-21T07:35:23.436Z,460.00
2022-10-21T07:36:23.440Z,561.00
2022-10-21T07:37:23.461Z,704.00
2022-10-21T07:38:23.382Z,651.00
2022-10-21T07:39:23.391Z,562.00
2022-10-21T07:40:23.383Z,487.00
2022-10-21T07:41:23.388Z,611.00
2022-10-21T07:42:23.337Z,846.00
2022-10-21T07:43:23.356Z,871.00
2022-10-21T07:44:23.307Z,813.00
2022-10-21T07:45:23.304Z,856.00
2022-10-21T07:46:23.298Z,871.00
2022-10-21T07:47:23.309Z,878.00
2022-10-21T07:48:23.261Z,984.00
2022-10-21T07:49:23.267Z,1020.00
2022-10-21T07:50:23.222Z,987.00
2022-10-21T07:51:26.953Z,947.00
2022-10-21T07:52:23.235Z,916.00
2022-10-21T07:53:23.223Z,857.00
2022-10-21T07:54:29.689Z,801.00
2022-10-21T07:55:23.167Z,767.00
2022-10-21T07:56:23.146Z,751.00
2022-10-21T07:57:23.159Z,667.00
2022-10-21T07:58:23.152Z,577.00
2022-10-21T07:59:23.157Z,589.00
2022-10-21T08:00:23.142Z,642.00
2022-10-21T08:01:23.138Z,635.00
2022-10-21T08:02:23.074Z,589.00
2022-10-21T08:03:23.109Z,633.00
2022-10-21T08:04:23.064Z,673.00
2022-10-21T08:05:23.064Z,739.00
2022-10-21T08:06:23.022Z,815.00
2022-10-21T08:07:23.019Z,858.00
2022-10-21T08:08:23.015Z,811.00
2022-10-21T08:09:23.019Z,759.00
2022-10-21T08:10:22.972Z,770.00
2022-10-21T08:11:22.986Z,720.00
2022-10-21T08:12:22.937Z,733.00
2022-10-21T08:13:22.939Z,667.00
2022-10-21T08:14:22.958Z,708.00
2022-10-21T08:15:22.949Z,868.00
2022-10-21T08:16:22.885Z,908.00
2022-10-21T08:17:22.887Z,927.00
2022-10-21T08:18:22.861Z,1029.00
2022-10-21T08:19:22.870Z,1389.00
2022-10-21T08:20:22.877Z,1667.00
2022-10-21T08:21:22.850Z,1607.00
2022-10-21T08:22:22.811Z,1126.00
2022-10-21T08:23:22.832Z,1124.00
2022-10-21T08:24:22.779Z,1190.00
2022-10-21T08:25:22.829Z,1109.00
2022-10-21T08:26:22.781Z,1320.00
2022-10-21T08:27:22.771Z,1575.00
2022-10-21T08:28:22.725Z,1631.00
2022-10-21T08:29:22.769Z,1457.00
2022-10-21T08:30:22.721Z,1077.00
2022-10-21T08:31:22.735Z,630.00
2022-10-21T08:32:22.692Z,971.00
2022-10-21T08:33:22.711Z,1243.00
2022-10-21T08:34:22.679Z,1243.00
2022-10-21T08:35:22.663Z,1140.00
2022-10-21T08:36:22.715Z,958.00
2022-10-21T08:37:25.534Z,671.00
2022-10-21T08:38:22.601Z,531.00
2022-10-21T08:39:22.602Z,803.00
2022-10-21T08:40:22.583Z,1223.00
2022-10-21T08:41:22.584Z,1282.00
2022-10-21T08:42:22.580Z,987.00
2022-10-21T08:43:22.558Z,677.00
2022-10-21T08:44:22.522Z,670.00
2022-10-21T08:45:22.525Z,715.00
2022-10-21T08:46:22.499Z,619.00
2022-10-21T08:47:22.546Z,371.00
2022-10-21T08:48:22.473Z,670.00
2022-10-21T08:49:25.017Z,745.00
2022-10-21T08:50:22.454Z,827.00
2022-10-21T08:51:22.445Z,1257.00
2022-10-21T08:52:22.420Z,879.00
2022-10-21T08:53:22.461Z,1004.00
2022-10-21T08:54:22.401Z,1023.00
2022-10-21T08:55:22.399Z,744.00
2022-10-21T08:56:22.402Z,703.00
2022-10-21T08:57:22.367Z,829.00
2022-10-21T08:58:22.391Z,655.00
2022-10-21T08:59:22.321Z,674.00
2022-10-21T09:00:22.332Z,868.00
2022-10-21T09:01:22.309Z,850.00
2022-10-21T09:02:22.312Z,1358.00
2022-10-21T09:03:22.335Z,1408.00
2022-10-21T09:04:22.302Z,1168.00
2022-10-21T09:05:22.290Z,1195.00
2022-10-21T09:06:22.257Z,1449.00
2022-10-21T09:07:22.227Z,1342.00
2022-10-21T09:08:22.226Z,1150.00
2022-10-21T09:09:22.298Z,1387.00
2022-10-21T09:10:22.200Z,1553.00
2022-10-21T09:11:22.174Z,1367.00
2022-10-21T09:12:22.186Z,1090.00
2022-10-21T09:13:22.142Z,1445.00
2022-10-21T09:14:22.179Z,1300.00
2022-10-21T09:15:22.181Z,1458.00
2022-10-21T09:16:22.123Z,1369.00
2022-10-21T09:17:22.102Z,1648.00
2022-10-21T09:18:22.103Z,1133.00
2022-10-21T09:19:22.066Z,1241.00
2022-10-21T09:20:22.107Z,1058.00
2022-10-21T09:21:22.055Z,1195.00
2022-10-21T09:22:34.698Z,996.00
2022-10-21T09:23:22.068Z,1094.00
2022-10-21T09:24:22.042Z,1530.00
2022-10-21T09:25:21.984Z,1386.00
2022-10-21T09:26:25.335Z,1069.00
2022-10-21T09:27:31.845Z,1043.00
2022-10-21T09:28:21.967Z,1486.00
2022-10-21T09:29:21.936Z,1256.00
2022-10-21T09:30:22.068Z,1239.00
2022-10-21T09:31:21.939Z,1464.00
2022-10-21T09:32:21.933Z,1340.00
2022-10-21T09:33:21.894Z,1409.00
2022-10-21T09:34:21.882Z,1543.00
2022-10-21T09:35:21.859Z,1289.00
2022-10-21T09:36:21.861Z,1545.00
2022-10-21T09:37:21.861Z,1474.00
2022-10-21T09:38:21.836Z,1617.00
2022-10-21T09:39:21.824Z,1585.00
2022-10-21T09:40:21.815Z,1601.00
2022-10-21T09:42:42.721Z,1666.00
2022-10-21T09:43:21.758Z,1714.00
2022-10-21T09:44:21.761Z,1736.00
2022-10-21T09:45:21.739Z,1804.00
2022-10-21T09:46:21.723Z,1928.00
2022-10-21T09:47:21.698Z,1999.00
2022-10-21T09:48:21.732Z,2135.00
2022-10-21T09:49:53.971Z,2510.00
2022-10-21T09:50:21.744Z,2811.00
2022-10-21T09:51:21.664Z,3113.00
2022-10-21T09:52:21.657Z,3435.00
2022-10-21T09:53:24.149Z,3620.00
2022-10-21T09:54:21.620Z,4178.00
2022-10-21T09:55:21.624Z,4440.00
2022-10-21T09:56:21.604Z,4525.00
2022-10-21T09:57:21.572Z,4541.00
2022-10-21T09:58:21.571Z,4089.00
2022-10-21T09:59:21.616Z,5036.00
2022-10-21T10:00:21.536Z,5267.00
2022-10-21T10:01:21.536Z,5238.00
2022-10-21T10:02:21.550Z,5074.00
2022-10-21T10:03:21.491Z,5201.00
2022-10-21T10:04:21.528Z,4556.00
2022-10-21T10:05:21.467Z,4856.00
2022-10-21T10:06:21.460Z,4366.00
2022-10-21T10:07:21.441Z,5916.00
2022-10-21T10:08:21.445Z,7088.00
2022-10-21T10:09:21.409Z,7231.00
2022-10-21T10:10:21.444Z,7958.00
2022-10-21T10:11:21.402Z,8004.00
2022-10-21T10:12:21.384Z,7678.00
2022-10-21T10:13:21.361Z,7801.00
2022-10-21T10:14:21.366Z,7802.00
2022-10-21T10:15:21.370Z,7925.00
2022-10-21T10:16:21.331Z,8118.00
2022-10-21T10:17:21.324Z,8372.00
2022-10-21T10:18:21.307Z,6889.00
2022-10-21T10:19:21.281Z,7913.00
2022-10-21T10:20:21.288Z,7255.00
2022-10-21T10:21:21.281Z,6258.00
2022-10-21T10:22:21.261Z,6217.00
2022-10-21T10:23:21.239Z,5300.00
2022-10-21T10:24:21.251Z,5189.00
2022-10-21T10:25:21.202Z,7222.00
2022-10-21T10:26:21.245Z,5820.00
2022-10-21T10:27:21.180Z,5276.00
2022-10-21T10:28:21.178Z,5300.00
2022-10-21T10:29:21.182Z,4011.00
2022-10-21T10:30:21.160Z,6207.00
2022-10-21T10:31:21.158Z,5584.00
2022-10-21T10:32:21.154Z,5350.00
2022-10-21T10:33:21.098Z,5781.00
2022-10-21T10:34:21.104Z,6322.00
2022-10-21T10:35:21.075Z,5050.00
2022-10-21T10:36:21.111Z,6885.00
2022-10-21T10:37:21.103Z,4619.00
2022-10-21T10:38:21.044Z,6329.00
2022-10-21T10:39:21.032Z,4496.00
2022-10-21T10:40:21.022Z,5321.00
2022-10-21T10:41:21.001Z,5043.00
2022-10-21T10:42:20.998Z,3570.00
2022-10-21T10:43:21.001Z,6257.00
2022-10-21T10:44:20.969Z,4274.00
2022-10-21T10:45:20.945Z,5394.00
2022-10-21T10:46:20.956Z,3075.00
2022-10-21T10:47:20.950Z,5123.00
2022-10-21T10:48:21.001Z,6526.00
2022-10-21T10:49:20.904Z,6160.00
2022-10-21T10:50:20.892Z,6506.00
2022-10-21T10:51:20.869Z,6251.00
2022-10-21T10:52:20.862Z,4849.00
2022-10-21T10:53:20.835Z,5226.00
2022-10-21T10:54:20.879Z,3791.00
2022-10-21T10:55:20.821Z,3031.00
2022-10-21T10:56:20.809Z,3133.00
2022-10-21T10:57:20.815Z,3303.00
2022-10-21T10:58:24.157Z,3215.00
2022-10-21T10:59:20.816Z,3605.00
2022-10-21T11:00:20.796Z,3144.00
2022-10-21T11:01:20.830Z,3258.00
2022-10-21T11:02:20.761Z,3347.00
2022-10-21T11:03:25.171Z,3916.00
2022-10-21T11:04:20.982Z,3940.00
2022-10-21T11:05:20.711Z,4107.00
2022-10-21T11:06:20.695Z,3854.00
2022-10-21T11:07:20.651Z,3658.00
2022-10-21T11:08:20.683Z,4527.00
2022-10-21T11:09:22.756Z,5062.00
2022-10-21T11:10:20.684Z,5427.00
2022-10-21T11:11:20.628Z,6249.00
2022-10-21T11:12:20.621Z,6148.00
2022-10-21T11:13:20.611Z,6717.00
2022-10-21T11:14:22.669Z,7020.00
2022-10-21T11:15:20.563Z,6772.00
2022-10-21T11:16:20.613Z,6158.00
2022-10-21T11:17:20.525Z,5389.00
2022-10-21T11:18:24.410Z,5461.00
2022-10-21T11:19:20.524Z,7997.00
2022-10-21T11:20:20.537Z,7113.00
2022-10-21T11:21:20.481Z,6705.00
2022-10-21T11:22:20.501Z,7054.00
2022-10-21T11:23:20.458Z,6206.00
2022-10-21T11:24:20.454Z,6095.00
2022-10-21T11:25:20.532Z,6641.00
2022-10-21T11:26:20.446Z,7653.00
2022-10-21T11:27:20.402Z,5764.00
2022-10-21T11:28:20.404Z,5040.00
2022-10-21T11:29:20.411Z,4682.00
2022-10-21T11:30:20.376Z,3763.00
2022-10-21T11:31:20.381Z,4099.00
2022-10-21T11:32:20.387Z,3725.00
2022-10-21T11:33:20.346Z,3090.00
2022-10-21T11:34:20.316Z,2443.00
2022-10-21T11:35:20.294Z,2943.00
2022-10-21T11:36:20.334Z,2516.00
2022-10-21T11:37:20.272Z,2460.00
2022-10-21T11:38:20.272Z,2714.00
2022-10-21T11:39:21.582Z,2850.00
2022-10-21T11:40:20.237Z,5030.00
2022-10-21T11:41:21.877Z,6292.00
2022-10-21T11:42:20.353Z,5435.00
2022-10-21T11:43:20.189Z,3716.00
2022-10-21T11:44:20.187Z,5358.00
2022-10-21T11:45:20.158Z,6258.00
2022-10-21T11:46:20.177Z,4301.00
2022-10-21T11:47:20.165Z,3469.00
2022-10-21T11:48:20.141Z,4539.00
2022-10-21T11:49:20.150Z,4952.00
2022-10-21T11:51:20.086Z,4860.00
2022-10-21T11:52:20.103Z,5939.00
2022-10-21T11:53:20.084Z,6059.00
2022-10-21T11:54:20.057Z,5797.00
2022-10-21T11:55:20.055Z,6281.00
2022-10-21T11:56:20.055Z,4250.00
2022-10-21T11:57:20.002Z,4272.00
2022-10-21T11:58:20.080Z,4000.00
2022-10-21T11:59:20.069Z,4152.00
2022-10-21T12:00:19.986Z,3405.00
2022-10-21T12:01:19.957Z,5154.00
2022-10-21T12:02:20.011Z,3675.00
2022-10-21T12:03:19.931Z,3445.00
2022-10-21T12:04:19.955Z,3011.00
2022-10-21T12:05:19.906Z,4196.00
2022-10-21T12:06:19.953Z,4904.00
2022-10-21T12:07:19.869Z,4765.00
2022-10-21T12:08:19.981Z,4856.00
2022-10-21T12:09:19.947Z,3855.00
2022-10-21T12:10:19.894Z,3162.00
2022-10-21T12:11:19.824Z,3796.00
2022-10-21T12:12:19.863Z,5513.00
2022-10-21T12:13:19.844Z,8072.00
2022-10-21T12:14:19.835Z,8264.00
2022-10-21T12:15:19.833Z,6703.00
2022-10-21T12:16:19.804Z,5650.00
2022-10-21T12:17:19.785Z,4805.00
2022-10-21T12:18:19.749Z,5268.00
2022-10-21T12:19:19.723Z,5013.00
2022-10-21T12:20:22.951Z,3513.00
2022-10-21T12:21:19.740Z,5466.00
2022-10-21T12:22:19.718Z,3583.00
2022-10-21T12:23:19.671Z,2743.00
2022-10-21T12:24:19.709Z,4506.00
2022-10-21T12:25:19.656Z,5100.00
2022-10-21T12:26:19.706Z,3884.00
2022-10-21T12:27:19.619Z,3148.00
2022-10-21T12:28:19.644Z,2685.00
2022-10-21T12:29:19.602Z,3127.00
2022-10-21T12:30:23.373Z,3918.00
2022-10-21T12:31:19.638Z,2584.00
2022-10-21T12:32:19.573Z,3168.00
2022-10-21T12:33:19.599Z,4239.00
2022-10-21T12:34:19.537Z,3349.00
2022-10-21T12:35:19.549Z,3826.00
2022-10-21T12:36:19.523Z,4904.00
2022-10-21T12:37:19.520Z,6178.00
2022-10-21T12:38:19.499Z,6359.00
2022-10-21T12:39:19.514Z,5743.00
2022-10-21T12:40:19.465Z,5198.00
2022-10-21T12:41:19.439Z,4923.00
2022-10-21T12:42:19.441Z,3484.00
2022-10-21T12:43:19.409Z,6237.00
2022-10-21T12:44:19.417Z,7340.00
2022-10-21T12:45:19.425Z,5930.00
2022-10-21T12:46:19.441Z,4000.00
2022-10-21T12:47:19.359Z,5218.00